Time;durP1;ratioP1;P1;durP2;ratioP2;P2;SDS_P1;SDS_P2;PMS_P1;PMS_P2;Temp;Humidity;BMP_temperature;BMP_pressure;BME280_temperature;BME280_humidity;BME280_pressure;Samples;Min_cycle;Max_cycle;Signal;HPM_P1;HPM_P2
2021/06/18 00:01:33;;;;;;;;;;;;;;;20.35;76.08;100905.84;4954862;28;1751;-62
2021/06/18 00:03:59;;;;;;;;;;;;;;;20.33;75.88;100896.22;4954006;29;1980;-58
2021/06/18 00:06:26;;;;;;;;;;;;;;;20.33;76.88;100909.66;4953984;28;1448;-58
2021/06/18 00:08:52;;;;;;;;;;;;;;;20.35;76.50;100902.28;4956439;28;1460;-64
2021/06/18 00:11:19;;;;;;;;;;;;;;;20.26;76.51;100896.78;4955141;28;1520;-63
2021/06/18 00:13:47;;;;;;;;;;;;;;;20.19;75.94;100898.34;4956785;28;1476;-63
2021/06/18 00:16:14;;;;;;;;;;;;;;;20.21;75.86;100893.69;4953013;28;1500;-58
2021/06/18 00:18:42;;;;;;;;;;;;;;;20.26;76.54;100902.16;4955468;29;1436;-59
2021/06/18 00:21:08;;;;;;;;;;;;;;;20.26;76.26;100901.31;4956820;28;1428;-63
2021/06/18 00:23:35;;;;;;;;;;;;;;;20.31;76.17;100903.56;4956341;28;1996;-63
2021/06/18 00:26:01;;;;;;;;;;;;;;;20.23;76.50;100889.03;4955675;28;1608;-63
2021/06/18 00:28:28;;;;;;;;;;;;;;;20.18;76.22;100882.38;4954395;28;1593;-63
2021/06/18 00:30:57;;;;;;;;;;;;;;;20.17;76.59;100886.03;4956333;28;1592;-63
2021/06/18 00:33:23;;;;;;;;;;;;;;;20.22;76.75;100884.63;4954374;28;1794;-63
2021/06/18 00:35:50;;;;;;;;;;;;;;;20.22;75.74;100873.06;4956081;28;1539;-58
2021/06/18 00:38:16;;;;;;;;;;;;;;;20.23;76.57;100861.31;4956007;28;1636;-58
2021/06/18 00:40:45;;;;;;;;;;;;;;;20.22;75.71;100879.25;4957408;29;1082;-59
2021/06/18 00:43:12;;;;;;;;;;;;;;;20.22;76.20;100873.88;4955682;28;1906;-63
2021/06/18 00:45:38;;;;;;;;;;;;;;;20.09;75.54;100851.00;4954863;29;1562;-59
2021/06/18 00:48:07;;;;;;;;;;;;;;;20.17;75.98;100865.41;4952674;28;1706;-59
2021/06/18 00:50:34;;;;;;;;;;;;;;;20.21;76.02;100874.91;4954832;28;1707;-58
2021/06/18 00:53:01;;;;;;;;;;;;;;;20.20;76.26;100866.97;4955462;28;1600;-58
2021/06/18 00:55:27;;;;;;;;;;;;;;;20.17;75.68;100865.41;4957593;29;1065;-64
2021/06/18 00:57:54;;;;;;;;;;;;;;;20.19;75.18;100865.25;4955809;28;1656;-58
2021/06/18 01:00:21;;;;;;;;;;;;;;;20.19;74.93;100858.06;4953278;28;1497;-58
2021/06/18 01:02:48;;;;;;;;;;;;;;;20.20;75.17;100853.53;4955686;28;1632;-63
2021/06/18 01:05:17;;;;;;;;;;;;;;;20.21;75.92;100861.47;4955581;28;1906;-63
2021/06/18 01:07:48;;;;;;;;;;;;;;;20.17;75.60;100873.44;4954754;29;1872;-58
2021/06/18 01:10:19;;;;;;;;;;;;;;;20.12;75.84;100889.16;4953755;28;1557;-63
2021/06/18 01:12:51;;;;;;;;;;;;;;;20.10;75.09;100901.88;4955417;28;1560;-64
2021/06/18 01:15:21;;;;;;;;;;;;;;;20.19;75.67;100900.16;4953560;29;1636;-59
2021/06/18 01:17:50;;;;;;;;;;;;;;;20.24;76.53;100885.34;4953062;29;1580;-58
2021/06/18 01:20:35;;;;;;;;;;;;;;;20.25;75.53;100873.63;4955041;29;1625;-58
2021/06/18 01:23:05;;;;;;;;;;;;;;;20.25;75.46;100903.16;4954492;29;1542;-58
2021/06/18 01:25:39;;;;;;;;;;;;;;;20.13;76.33;100885.47;4955885;28;1944;-63
2021/06/18 01:28:15;;;;;;;;;;;;;;;20.20;76.37;100858.91;4951929;29;1559;-63
2021/06/18 01:30:44;;;;;;;;;;;;;;;20.27;75.36;100885.06;4953355;29;1572;-58
2021/06/18 01:33:13;;;;;;;;;;;;;;;20.33;75.85;100874.72;4954592;28;1585;-63
2021/06/18 01:35:42;;;;;;;;;;;;;;;20.34;75.38;100892.56;4954812;28;1423;-63
2021/06/18 01:38:10;;;;;;;;;;;;;;;20.29;75.33;100873.31;4955309;29;1628;-63
2021/06/18 01:40:37;;;;;;;;;;;;;;;20.25;75.31;100875.44;4954383;28;1625;-63
2021/06/18 01:43:06;;;;;;;;;;;;;;;20.23;74.90;100867.53;4954653;28;1763;-63
2021/06/18 01:45:33;;;;;;;;;;;;;;;20.23;76.13;100866.66;4950585;28;1973;-63
2021/06/18 01:48:03;;;;;;;;;;;;;;;20.27;74.89;100874.31;4953378;29;1632;-58
2021/06/18 01:50:30;;;;;;;;;;;;;;;20.26;75.10;100867.25;4954771;28;1596;-64
2021/06/18 01:53:00;;;;;;;;;;;;;;;20.21;74.90;100871.34;4954932;28;1517;-67
2021/06/18 01:55:27;;;;;;;;;;;;;;;20.06;74.88;100882.50;4954034;28;1424;-62
2021/06/18 01:57:55;;;;;;;;;;;;;;;20.10;74.87;100877.69;4951192;29;1716;-63
2021/06/18 02:00:22;;;;;;;;;;;;;;;20.16;75.80;100885.19;4951866;28;1566;-58
2021/06/18 02:02:49;;;;;;;;;;;;;;;20.20;74.50;100885.78;4949595;29;1572;-58
2021/06/18 02:05:18;;;;;;;;;;;;;;;20.25;74.96;100897.78;4953271;28;1915;-58
2021/06/18 02:07:45;;;;;;;;;;;;;;;20.27;74.43;100881.50;4953322;28;1660;-58
2021/06/18 02:10:13;;;;;;;;;;;;;;;20.27;74.94;100882.38;4951883;28;1532;-58
2021/06/18 02:12:40;;;;;;;;;;;;;;;20.26;75.07;100874.47;4949075;28;1555;-63
2021/06/18 02:15:07;;;;;;;;;;;;;;;20.25;76.18;100870.06;4953465;28;1573;-58
2021/06/18 02:17:35;;;;;;;;;;;;;;;20.31;75.32;100872.19;4950973;29;1466;-58
2021/06/18 02:20:04;;;;;;;;;;;;;;;20.33;74.86;100874.72;4951290;29;1327;-58
2021/06/18 02:22:34;;;;;;;;;;;;;;;20.32;74.96;100862.31;4952983;28;1704;-58
2021/06/18 02:25:02;;;;;;;;;;;;;;;20.34;74.76;100877.28;4956750;28;1906;-58
2021/06/18 02:27:29;;;;;;;;;;;;;;;20.31;74.78;100857.91;4957655;28;1528;-58
2021/06/18 02:29:56;;;;;;;;;;;;;;;20.33;74.95;100870.19;4957037;28;1547;-58
2021/06/18 02:32:24;;;;;;;;;;;;;;;20.33;75.08;100864.00;4954213;28;1719;-58
2021/06/18 02:34:51;;;;;;;;;;;;;;;20.30;74.53;100858.91;4956908;28;1580;-58
2021/06/18 02:37:18;;;;;;;;;;;;;;;20.32;75.43;100857.78;4949701;28;1496;-62
2021/06/18 02:39:48;;;;;;;;;;;;;;;20.34;74.66;100860.31;4957817;28;1564;-63
2021/06/18 02:42:14;;;;;;;;;;;;;;;20.34;75.17;100849.59;4955951;28;1495;-63
2021/06/18 02:44:41;;;;;;;;;;;;;;;20.36;75.15;100837.69;4956887;29;1974;-58
2021/06/18 02:47:10;;;;;;;;;;;;;;;20.33;75.29;100826.38;4954750;28;1722;-63
2021/06/18 02:49:41;;;;;;;;;;;;;;;20.32;74.80;100830.09;4954640;28;1512;-58
2021/06/18 02:52:09;;;;;;;;;;;;;;;20.31;74.76;100837.28;4954740;28;1502;-65
2021/06/18 02:54:38;;;;;;;;;;;;;;;20.29;74.46;100823.13;4957344;28;1477;-63
2021/06/18 02:57:09;;;;;;;;;;;;;;;20.31;74.17;100849.84;4957113;28;1569;-58
2021/06/18 02:59:37;;;;;;;;;;;;;;;20.32;75.09;100843.50;4956192;28;1447;-58
2021/06/18 03:02:08;;;;;;;;;;;;;;;20.31;74.24;100865.97;4955570;29;1716;-63
2021/06/18 03:04:37;;;;;;;;;;;;;;;20.27;73.80;100860.03;4953596;28;2013;-58
2021/06/18 03:07:04;;;;;;;;;;;;;;;20.32;73.77;100844.34;4954197;28;1491;-58
2021/06/18 03:09:32;;;;;;;;;;;;;;;20.32;74.63;100827.41;4955925;28;1526;-58
2021/06/18 03:12:00;;;;;;;;;;;;;;;20.26;74.83;100844.91;4956133;28;1628;-58
2021/06/18 03:14:29;;;;;;;;;;;;;;;20.29;74.20;100851.84;4956884;28;1576;-63
2021/06/18 03:16:59;;;;;;;;;;;;;;;20.32;74.76;100851.56;4955388;28;1862;-58
2021/06/18 03:19:27;;;;;;;;;;;;;;;20.30;75.00;100854.38;4951752;28;1520;-58
2021/06/18 03:21:55;;;;;;;;;;;;;;;20.33;74.04;100872.03;4955446;28;1512;-58
2021/06/18 03:24:22;;;;;;;;;;;;;;;20.34;74.65;100863.00;4956186;28;1981;-58
2021/06/18 03:26:49;;;;;;;;;;;;;;;20.31;74.13;100855.22;4955700;28;1671;-58
2021/06/18 03:29:17;;;;;;;;;;;;;;;20.31;74.71;100852.53;4956044;28;1561;-58
2021/06/18 03:31:45;;;;;;;;;;;;;;;20.30;73.98;100859.75;4955241;28;1628;-63
2021/06/18 03:34:11;;;;;;;;;;;;;;;20.29;74.99;100873.31;4952505;28;1589;-62
2021/06/18 03:36:39;;;;;;;;;;;;;;;20.31;74.74;100882.09;4954986;28;1567;-63
2021/06/18 03:39:07;;;;;;;;;;;;;;;19.96;74.89;100854.78;4956650;29;1466;-63
2021/06/18 03:41:34;;;;;;;;;;;;;;;19.95;75.48;100922.03;4955273;29;1484;-58
2021/06/18 03:44:01;;;;;;;;;;;;;;;20.02;75.54;100912.44;4955476;28;1903;-58
2021/06/18 03:46:28;;;;;;;;;;;;;;;19.99;76.10;100929.66;4951300;29;1581;-58
2021/06/18 03:48:58;;;;;;;;;;;;;;;20.05;75.83;100934.50;4954869;28;1565;-58
2021/06/18 03:51:24;;;;;;;;;;;;;;;20.13;75.02;100922.22;4955194;29;1512;-58
2021/06/18 03:53:51;;;;;;;;;;;;;;;20.22;74.93;100916.00;4953271;28;1712;-58
2021/06/18 03:56:18;;;;;;;;;;;;;;;20.25;75.59;100927.31;4947480;29;1530;-59
2021/06/18 03:58:46;;;;;;;;;;;;;;;20.30;74.77;100915.31;4949731;28;1359;-62
2021/06/18 04:01:14;;;;;;;;;;;;;;;20.28;75.53;100912.75;4953503;28;1520;-58
2021/06/18 04:03:43;;;;;;;;;;;;;;;20.16;75.74;100906.66;4953095;29;1402;-58
2021/06/18 04:06:11;;;;;;;;;;;;;;;20.22;75.65;100903.44;4950825;29;1906;-58
2021/06/18 04:08:38;;;;;;;;;;;;;;;20.24;75.12;100905.97;4950960;28;1548;-58
2021/06/18 04:11:06;;;;;;;;;;;;;;;20.27;75.70;100909.25;4951195;29;1551;-58
2021/06/18 04:13:32;;;;;;;;;;;;;;;20.27;75.38;100906.56;4949425;29;1407;-58
2021/06/18 04:15:59;;;;;;;;;;;;;;;20.35;75.41;100918.41;4948435;29;1394;-58
2021/06/18 04:18:26;;;;;;;;;;;;;;;20.31;75.75;100914.31;4951767;29;1400;-66
2021/06/18 04:20:53;;;;;;;;;;;;;;;20.34;74.77;100911.34;4953195;28;1639;-63
2021/06/18 04:23:27;;;;;;;;;;;;;;;20.25;72.92;100908.53;4949221;28;1472;-63
2021/06/18 04:25:54;;;;;;;;;;;;;;;20.19;75.37;100909.09;4950882;29;1906;-63
2021/06/18 04:28:21;;;;;;;;;;;;;;;20.24;75.78;100893.38;4951026;29;1242;-58
2021/06/18 04:30:47;;;;;;;;;;;;;;;20.25;75.50;100899.59;4947180;28;1386;-63
2021/06/18 04:33:14;;;;;;;;;;;;;;;20.28;75.75;100902.03;4947911;28;1747;-58
2021/06/18 04:35:41;;;;;;;;;;;;;;;20.27;76.19;100877.00;4950678;29;1530;-58
2021/06/18 04:38:07;;;;;;;;;;;;;;;20.29;76.54;100900.19;4951066;28;1323;-58
2021/06/18 04:40:35;;;;;;;;;;;;;;;20.29;76.83;100900.19;4953064;29;1515;-58
2021/06/18 04:43:02;;;;;;;;;;;;;;;20.30;76.64;100886.63;4950084;28;1479;-63
2021/06/18 04:45:29;;;;;;;;;;;;;;;20.31;76.73;100882.09;4944740;28;1978;-65
2021/06/18 04:47:57;;;;;;;;;;;;;;;20.37;76.45;100876.13;4949115;29;1467;-59
2021/06/18 04:50:24;;;;;;;;;;;;;;;20.35;75.75;100886.19;4947663;29;1542;-59
2021/06/18 04:52:51;;;;;;;;;;;;;;;20.40;76.41;100892.81;4950962;29;1483;-59
2021/06/18 04:55:18;;;;;;;;;;;;;;;20.44;75.65;100882.66;4945764;29;1434;-59
2021/06/18 04:57:47;;;;;;;;;;;;;;;20.46;75.71;100886.88;4946322;28;1583;-65
2021/06/18 05:00:15;;;;;;;;;;;;;;;20.43;76.57;100886.31;4944070;29;1460;-64
2021/06/18 05:02:41;;;;;;;;;;;;;;;20.41;75.97;100894.53;4947042;28;1448;-61
2021/06/18 05:05:08;;;;;;;;;;;;;;;20.41;76.15;100866.81;4945906;28;1981;-66
2021/06/18 05:07:35;;;;;;;;;;;;;;;20.40;76.46;100897.34;4949282;28;1366;-61
2021/06/18 05:10:02;;;;;;;;;;;;;;;20.42;76.78;100900.75;4946977;29;1770;-64
2021/06/18 05:12:28;;;;;;;;;;;;;;;20.34;76.87;100898.78;4948011;29;1697;-58
2021/06/18 05:14:56;;;;;;;;;;;;;;;20.05;76.68;100920.22;4949278;29;1404;-58
2021/06/18 05:17:23;;;;;;;;;;;;;;;19.88;77.25;100928.97;4950422;28;1412;-63
2021/06/18 05:19:50;;;;;;;;;;;;;;;19.83;77.65;100916.78;4945561;28;1749;-58
2021/06/18 05:22:16;;;;;;;;;;;;;;;19.94;77.83;100906.94;4951213;29;1487;-63
2021/06/18 05:24:43;;;;;;;;;;;;;;;19.85;78.56;100914.78;4954297;28;1914;-58
2021/06/18 05:27:10;;;;;;;;;;;;;;;19.85;78.64;100920.16;4953976;28;1690;-63
2021/06/18 05:29:37;;;;;;;;;;;;;;;19.94;77.57;100914.97;4952434;28;1589;-63
2021/06/18 05:32:05;;;;;;;;;;;;;;;19.91;77.82;100923.28;4953733;28;1515;-58
2021/06/18 05:34:32;;;;;;;;;;;;;;;19.90;78.29;100930.50;4952642;28;1583;-64
2021/06/18 05:36:58;;;;;;;;;;;;;;;19.94;77.84;100912.31;4947718;28;1519;-59
2021/06/18 05:39:25;;;;;;;;;;;;;;;20.08;77.66;100922.63;4953661;29;1492;-65
2021/06/18 05:41:52;;;;;;;;;;;;;;;20.23;78.10;100918.56;4952860;28;1534;-65
2021/06/18 05:44:18;;;;;;;;;;;;;;;20.19;77.17;100906.41;4946690;28;1601;-58
2021/06/18 05:46:45;;;;;;;;;;;;;;;20.15;77.54;100913.00;4951232;29;1906;-58
2021/06/18 05:49:13;;;;;;;;;;;;;;;20.18;78.25;100923.50;4946315;28;1613;-64
2021/06/18 05:51:40;;;;;;;;;;;;;;;20.23;78.33;100920.38;4948398;28;1682;-69
2021/06/18 05:54:06;;;;;;;;;;;;;;;20.30;78.32;100908.09;4944466;29;1436;-66
2021/06/18 05:56:33;;;;;;;;;;;;;;;20.17;78.60;100919.09;4946831;29;1416;-64
2021/06/18 05:59:00;;;;;;;;;;;;;;;20.08;79.22;100919.09;4952960;28;1354;-65
2021/06/18 06:01:26;;;;;;;;;;;;;;;20.21;77.71;100908.94;4954061;28;1409;-65
2021/06/18 06:03:54;;;;;;;;;;;;;;;20.21;78.58;100914.31;4953783;28;1566;-58
2021/06/18 06:06:22;;;;;;;;;;;;;;;20.10;79.36;100926.03;4955813;29;1981;-59
2021/06/18 06:08:51;;;;;;;;;;;;;;;20.03;79.63;100915.00;4950869;29;1770;-58
2021/06/18 06:11:18;;;;;;;;;;;;;;;20.08;79.80;100903.00;4951808;29;1397;-59
2021/06/18 06:13:45;;;;;;;;;;;;;;;20.12;78.83;100907.09;4952231;28;1550;-62
2021/06/18 06:16:12;;;;;;;;;;;;;;;20.09;79.41;100907.38;4954556;29;1546;-58
2021/06/18 06:18:39;;;;;;;;;;;;;;;20.08;79.16;100911.06;4956466;28;1389;-58
2021/06/18 06:21:05;;;;;;;;;;;;;;;20.23;78.89;100905.13;4958546;28;1671;-65
2021/06/18 06:23:33;;;;;;;;;;;;;;;20.26;78.62;100918.25;4957437;29;1752;-59
2021/06/18 06:26:00;;;;;;;;;;;;;;;20.27;78.11;100909.25;4957169;28;1918;-64
2021/06/18 06:28:28;;;;;;;;;;;;;;;20.26;78.04;100907.53;4959194;28;1322;-64
2021/06/18 06:30:55;;;;;;;;;;;;;;;20.30;77.28;100912.63;4957685;28;1553;-64
2021/06/18 06:33:22;;;;;;;;;;;;;;;20.36;77.25;100931.69;4956953;28;1401;-64
2021/06/18 06:35:48;;;;;;;;;;;;;;;20.34;77.38;100916.72;4959041;28;1739;-61
2021/06/18 06:38:17;;;;;;;;;;;;;;;20.33;77.29;100918.53;4955372;28;1515;-61
2021/06/18 06:40:45;;;;;;;;;;;;;;;20.30;76.87;100912.63;4952822;28;1303;-64
2021/06/18 06:43:11;;;;;;;;;;;;;;;20.31;78.04;100904.41;4954500;28;1857;-64
2021/06/18 06:45:38;;;;;;;;;;;;;;;20.27;78.18;100903.88;4957722;29;1978;-64
2021/06/18 06:48:04;;;;;;;;;;;;;;;20.30;77.30;100907.25;4957496;29;1660;-64
2021/06/18 06:50:31;;;;;;;;;;;;;;;20.28;77.88;100907.38;4959054;28;1604;-64
2021/06/18 06:52:57;;;;;;;;;;;;;;;20.32;78.22;100903.44;4959313;28;1581;-62
2021/06/18 06:55:24;;;;;;;;;;;;;;;20.34;78.03;100900.63;4954414;28;1398;-64
2021/06/18 06:57:52;;;;;;;;;;;;;;;20.31;78.13;100908.94;4951181;28;1538;-62
2021/06/18 07:00:19;;;;;;;;;;;;;;;20.30;78.13;100904.56;4951407;28;1519;-64
2021/06/18 07:02:46;;;;;;;;;;;;;;;20.29;78.20;100898.34;4956652;28;1521;-64
2021/06/18 07:05:13;;;;;;;;;;;;;;;20.32;77.50;100891.84;4956570;28;1980;-60
2021/06/18 07:07:40;;;;;;;;;;;;;;;20.33;78.05;100890.84;4956868;28;1461;-60
2021/06/18 07:10:07;;;;;;;;;;;;;;;20.31;77.71;100877.56;4954954;28;1696;-60
2021/06/18 07:12:33;;;;;;;;;;;;;;;20.24;78.59;100881.81;4951606;28;1538;-64
2021/06/18 07:15:01;;;;;;;;;;;;;;;20.20;78.54;100891.13;4953511;28;1487;-60
2021/06/18 07:17:28;;;;;;;;;;;;;;;20.18;78.46;100891.28;4951276;29;1440;-60
2021/06/18 07:19:56;;;;;;;;;;;;;;;20.21;78.77;100891.00;4956605;28;1494;-60
2021/06/18 07:22:23;;;;;;;;;;;;;;;20.23;78.98;100889.03;4953255;28;1666;-60
2021/06/18 07:24:50;;;;;;;;;;;;;;;20.20;79.08;100875.88;4949602;28;1671;-66
2021/06/18 07:27:16;;;;;;;;;;;;;;;20.17;79.57;100886.03;4953462;29;1914;-66
2021/06/18 07:29:44;;;;;;;;;;;;;;;20.34;78.64;100874.59;4947767;28;1550;-59
2021/06/18 07:32:12;;;;;;;;;;;;;;;20.31;78.93;100876.72;4952271;29;1628;-68
2021/06/18 07:34:39;;;;;;;;;;;;;;;20.30;79.03;100883.09;4950579;28;1452;-65
2021/06/18 07:37:06;;;;;;;;;;;;;;;20.27;79.01;100892.25;4951348;28;1551;-60
2021/06/18 07:39:33;;;;;;;;;;;;;;;20.21;79.67;100888.31;4952029;29;1518;-60
2021/06/18 07:41:59;;;;;;;;;;;;;;;20.22;79.58;100886.47;4952023;28;1533;-64
2021/06/18 07:44:26;;;;;;;;;;;;;;;20.21;79.64;100884.75;4952567;28;1494;-65
2021/06/18 07:46:52;;;;;;;;;;;;;;;20.31;78.45;100890.13;4951914;28;1978;-63
2021/06/18 07:49:20;;;;;;;;;;;;;;;20.33;78.77;100885.47;4952385;29;1788;-59
2021/06/18 07:51:47;;;;;;;;;;;;;;;20.31;78.33;100874.88;4955152;28;1537;-59
2021/06/18 07:54:14;;;;;;;;;;;;;;;20.39;78.31;100880.41;4949970;28;1240;-64
2021/06/18 07:56:43;;;;;;;;;;;;;;;20.34;78.27;100892.56;4953202;29;1412;-60
2021/06/18 07:59:10;;;;;;;;;;;;;;;20.40;78.78;100874.03;4947026;28;1399;-61
2021/06/18 08:01:37;;;;;;;;;;;;;;;20.39;78.36;100874.16;4950497;28;1749;-65
2021/06/18 08:04:03;;;;;;;;;;;;;;;20.40;78.42;100862.44;4953129;28;1406;-65
2021/06/18 08:06:31;;;;;;;;;;;;;;;20.45;78.72;100871.78;4953261;29;1910;-64
2021/06/18 08:08:58;;;;;;;;;;;;;;;20.13;78.41;100817.50;4954026;28;1719;-66
2021/06/18 08:11:25;;;;;;;;;;;;;;;20.36;79.60;100858.34;4955217;28;1619;-59
2021/06/18 08:13:52;;;;;;;;;;;;;;;20.43;79.03;100854.97;4953243;29;1720;-66
2021/06/18 08:16:18;;;;;;;;;;;;;;;20.41;79.34;100853.38;4953401;28;1495;-66
2021/06/18 08:18:45;;;;;;;;;;;;;;;20.40;79.51;100860.59;4955811;29;1629;-66
2021/06/18 08:21:12;;;;;;;;;;;;;;;20.42;80.29;100868.53;4952896;28;1703;-64
2021/06/18 08:23:40;;;;;;;;;;;;;;;20.43;80.22;100854.97;4954155;28;1620;-64
2021/06/18 08:26:06;;;;;;;;;;;;;;;20.46;80.42;100862.72;4953177;29;1914;-66
2021/06/18 08:28:33;;;;;;;;;;;;;;;20.42;80.30;100841.66;4948967;28;1475;-59
2021/06/18 08:31:00;;;;;;;;;;;;;;;20.56;79.39;100835.84;4949776;28;1380;-67
2021/06/18 08:33:27;;;;;;;;;;;;;;;20.55;78.82;100827.91;4953491;29;1700;-65
2021/06/18 08:35:53;;;;;;;;;;;;;;;20.43;80.69;100825.41;4954594;28;1604;-59
2021/06/18 08:38:20;;;;;;;;;;;;;;;20.36;80.89;100810.84;4954300;28;1443;-66
2021/06/18 08:40:48;;;;;;;;;;;;;;;20.40;80.63;100819.47;4953936;28;1591;-64
2021/06/18 08:43:14;;;;;;;;;;;;;;;20.37;81.21;100798.25;4954304;28;1778;-65
2021/06/18 08:45:41;;;;;;;;;;;;;;;20.40;81.30;100806.03;4947907;28;1910;-64
2021/06/18 08:48:08;;;;;;;;;;;;;;;20.49;79.69;100804.31;4952828;28;1731;-59
2021/06/18 08:50:35;;;;;;;;;;;;;;;20.52;79.47;100798.66;4947053;29;1500;-59
2021/06/18 08:53:02;;;;;;;;;;;;;;;20.51;80.56;100791.59;4946114;29;1476;-60
2021/06/18 08:55:29;;;;;;;;;;;;;;;20.43;80.11;100803.06;4949145;28;1321;-64
2021/06/18 08:57:59;;;;;;;;;;;;;;;20.44;80.62;100794.84;4948222;29;1712;-64
2021/06/18 09:00:26;;;;;;;;;;;;;;;20.38;80.88;100805.34;4948731;29;1455;-59
2021/06/18 09:02:54;;;;;;;;;;;;;;;20.39;81.27;100809.69;4949781;28;1598;-59
2021/06/18 09:05:21;;;;;;;;;;;;;;;20.40;81.31;100817.63;4952065;29;1484;-65
2021/06/18 09:07:52;;;;;;;;;;;;;;;20.39;80.87;100804.31;4953245;28;1910;-59
2021/06/18 09:10:26;;;;;;;;;;;;;;;20.41;80.62;100810.41;4955080;29;1011;-64
2021/06/18 09:13:13;;;;;;;;;;;;;;;20.41;81.26;100796.97;4954023;28;1716;-60
2021/06/18 09:15:41;;;;;;;;;;;;;;;20.44;77.37;100794.00;4947018;29;1763;-59
2021/06/18 09:18:40;;;;;;;;;;;;;;;20.42;78.82;100782.56;4948568;29;1641;-59
2021/06/18 09:21:14;;;;;;;;;;;;;;;20.45;80.06;100788.50;4952657;29;1545;-63
2021/06/18 09:23:41;;;;;;;;;;;;;;;20.49;80.61;100788.19;4952981;29;1541;-59
2021/06/18 09:26:18;;;;;;;;;;;;;;;20.42;80.32;100780.72;4947715;28;1918;-65
2021/06/18 09:29:00;;;;;;;;;;;;;;;20.37;81.42;100763.34;4949238;29;1534;-65
2021/06/18 09:31:28;;;;;;;;;;;;;;;20.37;81.62;100764.22;4952296;29;1620;-65
2021/06/18 09:33:54;;;;;;;;;;;;;;;20.35;81.46;100759.94;4953737;28;1501;-65
2021/06/18 09:36:21;;;;;;;;;;;;;;;20.33;81.60;100773.53;4954278;29;1609;-65
2021/06/18 09:38:49;;;;;;;;;;;;;;;20.32;81.07;100761.09;4953780;28;1691;-59
2021/06/18 09:41:31;;;;;;;;;;;;;;;20.33;81.58;100745.81;4950128;28;1523;-60
2021/06/18 09:43:59;;;;;;;;;;;;;;;20.35;81.75;100754.59;4951338;28;1736;-66
2021/06/18 09:46:46;;;;;;;;;;;;;;;20.36;81.08;100746.38;4953284;28;1923;-60
2021/06/18 09:49:14;;;;;;;;;;;;;;;20.35;81.89;100743.84;4952996;29;1620;-65
2021/06/18 09:51:54;;;;;;;;;;;;;;;20.35;81.79;100755.44;4949287;28;1474;-65
2021/06/18 09:54:21;;;;;;;;;;;;;;;20.36;81.68;100750.91;4951275;29;1363;-60
2021/06/18 09:56:48;;;;;;;;;;;;;;;20.41;81.82;100751.31;4953540;28;1528;-60
2021/06/18 09:59:22;;;;;;;;;;;;;;;20.40;80.56;100746.94;4954307;28;1572;-64
2021/06/18 10:01:53;;;;;;;;;;;;;;;20.42;79.30;100739.59;4951061;29;1675;-64
2021/06/18 10:04:20;;;;;;;;;;;;;;;20.52;80.49;100740.41;4950886;29;1295;-60
2021/06/18 10:06:47;;;;;;;;;;;;;;;20.56;80.43;100736.44;4953528;28;1906;-61
2021/06/18 10:09:15;;;;;;;;;;;;;;;20.55;79.93;100731.19;4953323;28;1612;-60
2021/06/18 10:11:45;;;;;;;;;;;;;;;20.49;80.88;100738.00;4944868;29;1643;-65
2021/06/18 10:14:12;;;;;;;;;;;;;;;20.49;79.52;100735.31;4946176;29;1527;-62
2021/06/18 10:16:40;;;;;;;;;;;;;;;20.41;80.10;100716.41;4950887;29;1610;-62
2021/06/18 10:19:07;;;;;;;;;;;;;;;20.34;80.52;100718.84;4949073;29;1519;-61
2021/06/18 10:21:36;;;;;;;;;;;;;;;20.34;80.78;100731.41;4950696;28;1533;-62
2021/06/18 10:24:04;;;;;;;;;;;;;;;20.34;80.66;100721.50;4950112;29;1401;-64
2021/06/18 10:26:31;;;;;;;;;;;;;;;20.36;81.08;100734.81;4947877;28;1970;-63
2021/06/18 10:28:58;;;;;;;;;;;;;;;20.41;80.16;100735.19;4951811;28;1648;-65
2021/06/18 10:31:30;;;;;;;;;;;;;;;20.49;80.54;100735.31;4951402;28;1444;-62
2021/06/18 10:34:05;;;;;;;;;;;;;;;20.58;79.73;100728.22;4948272;29;1429;-63
2021/06/18 10:36:31;;;;;;;;;;;;;;;20.57;79.99;100732.78;4951114;29;1534;-62
2021/06/18 10:39:04;;;;;;;;;;;;;;;20.56;80.34;100746.34;4953856;29;1394;-65
2021/06/18 10:41:31;;;;;;;;;;;;;;;20.58;79.98;100733.59;4944875;29;1505;-65
2021/06/18 10:43:58;;;;;;;;;;;;;;;20.56;80.24;100740.97;4950167;28;1495;-66
2021/06/18 10:46:29;;;;;;;;;;;;;;;20.57;80.05;100745.34;4953696;28;1898;-67
2021/06/18 10:49:04;;;;;;;;;;;;;;;20.56;80.44;100732.91;4953221;29;1463;-60
2021/06/18 10:51:33;;;;;;;;;;;;;;;20.57;79.25;100743.50;4955770;29;1379;-60
2021/06/18 10:54:02;;;;;;;;;;;;;;;20.55;79.89;100739.25;4953679;28;1546;-60
2021/06/18 10:56:44;;;;;;;;;;;;;;;20.55;79.41;100733.88;4950748;28;1719;-65
2021/06/18 10:59:10;;;;;;;;;;;;;;;20.56;79.34;100727.53;4943436;28;1695;-61
2021/06/18 11:01:37;;;;;;;;;;;;;;;20.55;79.95;100733.88;4951764;29;1496;-65
2021/06/18 11:04:04;;;;;;;;;;;;;;;20.55;79.56;100734.75;4956004;28;1432;-65
2021/06/18 11:06:45;;;;;;;;;;;;;;;20.54;79.67;100735.72;4956115;29;1982;-65
2021/06/18 11:09:12;;;;;;;;;;;;;;;20.57;79.78;100739.97;4953427;28;1715;-61
2021/06/18 11:11:38;;;;;;;;;;;;;;;20.57;79.88;100739.97;4953037;29;1577;-66
2021/06/18 11:14:05;;;;;;;;;;;;;;;20.59;80.49;100744.25;4958121;28;1623;-66
2021/06/18 11:16:33;;;;;;;;;;;;;;;20.59;80.75;100725.44;4957087;28;1576;-65
2021/06/18 11:19:15;;;;;;;;;;;;;;;20.61;79.67;100727.94;4954500;28;1527;-65
2021/06/18 11:21:41;;;;;;;;;;;;;;;20.63;79.46;100726.84;4956430;28;1820;-60
2021/06/18 11:24:09;;;;;;;;;;;;;;;20.64;79.37;100712.41;4957483;28;1673;-66
2021/06/18 11:26:36;;;;;;;;;;;;;;;20.66;79.58;100707.72;4956708;28;1910;-60
2021/06/18 11:29:03;;;;;;;;;;;;;;;20.69;80.21;100697.66;4957126;29;1479;-66
2021/06/18 11:31:39;;;;;;;;;;;;;;;20.73;79.28;100683.81;4954679;29;1751;-65
2021/06/18 11:34:06;;;;;;;;;;;;;;;20.70;79.13;100684.09;4957775;28;1623;-60
2021/06/18 11:36:42;;;;;;;;;;;;;;;20.68;79.59;100669.13;4955863;29;1628;-66
2021/06/18 11:39:17;;;;;;;;;;;;;;;20.72;80.27;100668.66;4956584;29;1573;-66
2021/06/18 11:41:46;;;;;;;;;;;;;;;20.78;80.11;100667.22;4951507;29;1519;-66
2021/06/18 11:44:16;;;;;;;;;;;;;;;20.78;79.52;100656.47;4951390;29;1503;-66
2021/06/18 11:46:44;;;;;;;;;;;;;;;20.85;79.03;100642.28;4953492;28;1910;-59
2021/06/18 11:49:12;;;;;;;;;;;;;;;20.83;79.99;100667.59;4956180;29;1635;-66
2021/06/18 11:51:39;;;;;;;;;;;;;;;20.82;79.85;100644.44;4949576;28;1499;-59
2021/06/18 11:54:05;;;;;;;;;;;;;;;20.79;79.65;100647.41;4953514;29;1382;-59
2021/06/18 11:56:36;;;;;;;;;;;;;;;20.82;79.43;100639.06;4956481;28;1563;-66
2021/06/18 11:59:12;;;;;;;;;;;;;;;20.86;79.87;100635.91;4952903;29;1387;-66
2021/06/18 12:01:38;;;;;;;;;;;;;;;20.86;79.25;100632.38;4948894;29;1518;-62
2021/06/18 12:04:05;;;;;;;;;;;;;;;20.81;80.31;100631.97;4955001;28;1565;-60
2021/06/18 12:06:32;;;;;;;;;;;;;;;20.79;80.60;100607.09;4956519;28;1432;-59
2021/06/18 12:09:00;;;;;;;;;;;;;;;20.76;80.98;100624.38;4954571;29;1902;-59
2021/06/18 12:11:27;;;;;;;;;;;;;;;20.74;80.03;100622.84;4952775;29;1495;-59
2021/06/18 12:13:55;;;;;;;;;;;;;;;20.73;80.40;100631.88;4955800;29;1511;-59
2021/06/18 12:16:25;;;;;;;;;;;;;;;20.68;80.37;100624.28;4953820;28;1471;-60
2021/06/18 12:18:51;;;;;;;;;;;;;;;20.71;80.78;100612.38;4956128;28;1375;-59
2021/06/18 12:21:23;;;;;;;;;;;;;;;20.68;80.65;100618.06;4955469;28;1368;-59
2021/06/18 12:24:00;;;;;;;;;;;;;;;20.65;80.84;100633.50;4953874;29;1759;-59
2021/06/18 12:26:27;;;;;;;;;;;;;;;20.65;80.55;100628.13;4952115;29;1456;-66
2021/06/18 12:28:55;;;;;;;;;;;;;;;20.65;80.46;100619.19;4952991;28;1914;-66
2021/06/18 12:31:22;;;;;;;;;;;;;;;20.66;80.69;100602.09;4952049;28;1423;-66
2021/06/18 12:33:48;;;;;;;;;;;;;;;20.68;79.62;100586.66;4955014;28;1268;-60
2021/06/18 12:36:16;;;;;;;;;;;;;;;20.75;80.73;100592.25;4954792;28;1695;-59
2021/06/18 12:38:46;;;;;;;;;;;;;;;20.70;80.55;100578.47;4953375;28;1603;-59
2021/06/18 12:41:23;;;;;;;;;;;;;;;20.69;80.41;100552.56;4946985;29;1499;-59
2021/06/18 12:43:59;;;;;;;;;;;;;;;20.66;80.58;100586.81;4950206;29;1502;-60
2021/06/18 12:46:26;;;;;;;;;;;;;;;20.70;80.69;100567.72;4955393;28;1577;-59
2021/06/18 12:48:53;;;;;;;;;;;;;;;20.69;79.78;100536.44;4952047;29;1940;-60
2021/06/18 12:51:20;;;;;;;;;;;;;;;20.69;79.85;100561.50;4955115;29;1395;-65
2021/06/18 12:53:50;;;;;;;;;;;;;;;20.77;80.86;100584.91;4954321;28;1451;-69